Accueil
METAR-TAF:

METAR-TAF

Aéroports :

Koumac, Nouvelle-Calédonie

Aérodrome de Koumac

latitude: 20-34S, longitude: 164-17E, altitude: 23 m

METAR: absent

Heure: 08:50 (21:50 UTC)

Prévision

Le bulletin a été fait il y a 4 heures et 50 minutes, à 17:00 UTC
Prévision valable du 22 à 18 UTC au 23 à 18 UTC
Vent 2 kt de direction variable
Visibilité 10 km ou plus
Nuages épars à une hauteur de 3500 ft
Evoluant progressivement
du 22 à 22 UTC au 22 à 24 UTC
Vent 12 kt de sud
Evoluant progressivement
du 23 à 07 UTC au 23 à 09 UTC
Vent 2 kt de direction variable

TAF: NWWK 221700Z 2218/2318 VRB02KT 9999 SCT035 BECMG 2222/2224 18012KT BECMG 2307/2309 VRB02KT

Observations et prévisions météorologiques de plus de 4000 aéroports (messages METAR et TAF).

Les stations disponibles sont représentées par des disques jaunes et rouges sur la carte.

Passer la souris dessus pour voir le nom de la station.

Cliquer dessus pour voir les observations et prévisions météorologiques.

Pour changer de carte: cliquez sur les boutons verts avec une croix noire pour zoomer, sur le bouton vert avec un tiret pour effectuer un zoom arrière, ou sur les flèches vertes pour les cartes adjacentes.


METAR-TAF: